Time;durP1;ratioP1;P1;durP2;ratioP2;P2;SDS_P1;SDS_P2;PMS_P1;PMS_P2;Temp;Humidity;BMP_temperature;BMP_pressure;BME280_temperature;BME280_humidity;BME280_pressure;Samples;Min_cycle;Max_cycle;Signal;HPM_P1;HPM_P2
2022/06/01 00:00:35;;;;;;;18.40;10.82;;;;;;;;;;6270262;28;20013;-76
2022/06/01 00:03:39;;;;;;;21.37;11.37;;;;;;;;;;6270719;28;20028;-77
2022/06/01 00:06:39;;;;;;;20.55;11.93;;;;;;;;;;6272816;28;20293;-76
2022/06/01 00:09:39;;;;;;;21.63;12.37;;;;;;;;;;6271702;28;20472;-76
2022/06/01 00:12:39;;;;;;;23.95;11.30;;;;;;;;;;6271240;28;20325;-76
2022/06/01 00:15:40;;;;;;;18.38;11.40;;;;;;;;;;6272841;28;20025;-76
2022/06/01 00:18:40;;;;;;;17.95;10.93;;;;;;;;;;6266303;28;20392;-76
2022/06/01 00:24:59;;;;;;;23.05;13.30;;;;;;;;;;6268859;28;20025;-77
2022/06/01 00:27:59;;;;;;;17.87;11.70;;;;;;;;;;6271733;28;20115;-76
2022/06/01 00:30:59;;;;;;;23.30;13.10;;;;;;;;;;6270124;28;20115;-76
2022/06/01 00:34:01;;;;;;;15.63;10.50;;;;;;;;;;6270259;28;20031;-76
2022/06/01 00:37:02;;;;;;;;;;;;;;;;;;6270780;28;20012;-77
2022/06/01 00:40:06;;;;;;;16.42;9.65;;;;;;;;;;6270356;28;19916;-76
2022/06/01 00:43:18;;;;;;;17.48;10.00;;;;;;;;;;6269850;28;20020;-76
2022/06/01 00:46:18;;;;;;;18.10;10.25;;;;;;;;;;6269797;28;20052;-77
2022/06/01 00:49:20;;;;;;;15.27;9.27;;;;;;;;;;6266719;28;20031;-76
2022/06/01 00:52:35;;;;;;;17.80;8.88;;;;;;;;;;6260056;28;20031;-76
2022/06/01 00:55:37;;;;;;;15.13;10.20;;;;;;;;;;6268328;28;20032;-77
2022/06/01 00:58:37;;;;;;;;;;;;;;;;;;6270050;28;19997;-76
2022/06/01 01:01:38;;;;;;;22.35;9.52;;;;;;;;;;6269754;28;19905;-76
2022/06/01 01:04:39;;;;;;;16.45;9.02;;;;;;;;;;6269274;28;20078;-76
2022/06/01 01:07:40;;;;;;;18.70;9.70;;;;;;;;;;6270680;28;20012;-76
2022/06/01 01:10:40;;;;;;;18.30;10.65;;;;;;;;;;6264303;28;20025;-76
2022/06/01 01:13:43;;;;;;;15.38;9.40;;;;;;;;;;6259154;28;20028;-76
2022/06/01 01:16:43;;;;;;;17.08;9.88;;;;;;;;;;6264159;28;20435;-77
2022/06/01 01:19:49;;;;;;;14.47;9.40;;;;;;;;;;6265002;28;20037;-77
2022/06/01 01:22:51;;;;;;;23.00;10.82;;;;;;;;;;6265478;28;20660;-76
2022/06/01 01:25:51;;;;;;;16.40;9.88;;;;;;;;;;6268932;28;20071;-77
2022/06/01 01:28:52;;;;;;;17.02;10.40;;;;;;;;;;6269150;28;20021;-77
2022/06/01 01:31:53;;;;;;;17.38;10.48;;;;;;;;;;6269878;28;20028;-76
2022/06/01 01:34:53;;;;;;;16.73;10.13;;;;;;;;;;6266403;28;20085;-76
2022/06/01 01:37:53;;;;;;;18.67;11.97;;;;;;;;;;6268753;28;20048;-76
2022/06/01 01:41:03;;;;;;;19.30;12.10;;;;;;;;;;6269938;28;20244;-76
2022/06/01 01:44:22;;;;;;;20.65;11.07;;;;;;;;;;6263962;28;20021;-77
2022/06/01 01:47:22;;;;;;;17.67;10.50;;;;;;;;;;6269739;28;20568;-77
2022/06/01 01:50:23;;;;;;;15.20;10.87;;;;;;;;;;6274406;28;20025;-77
2022/06/01 01:53:23;;;;;;;15.82;9.25;;;;;;;;;;6269866;28;20686;-77
2022/06/01 01:56:24;;;;;;;21.50;11.33;;;;;;;;;;6266852;28;20038;-77
2022/06/01 01:59:31;;;;;;;22.23;10.63;;;;;;;;;;6275090;28;20020;-76
2022/06/01 02:02:40;;;;;;;20.00;10.75;;;;;;;;;;6275693;28;20485;-77
2022/06/01 02:09:09;;;;;;;16.65;10.98;;;;;;;;;;6269967;28;20459;-76
2022/06/01 02:15:40;;;;;;;18.77;11.55;;;;;;;;;;6268948;28;20392;-76
2022/06/01 02:18:43;;;;;;;20.95;10.38;;;;;;;;;;6272404;28;20052;-77
2022/06/01 02:21:44;;;;;;;20.83;11.98;;;;;;;;;;6272501;28;20033;-76
2022/06/01 02:24:45;;;;;;;15.63;10.17;;;;;;;;;;6273378;28;20457;-76
2022/06/01 02:27:46;;;;;;;15.18;7.60;;;;;;;;;;6273477;28;20244;-76
2022/06/01 02:30:47;;;;;;;13.02;7.45;;;;;;;;;;6274664;28;20025;-77
2022/06/01 02:33:47;;;;;;;14.05;7.55;;;;;;;;;;6267875;28;20096;-77
2022/06/01 02:36:49;;;;;;;10.57;6.63;;;;;;;;;;6268380;28;20472;-77
2022/06/01 02:39:53;;;;;;;12.90;6.22;;;;;;;;;;6268575;28;20089;-76
2022/06/01 02:42:53;;;;;;;10.55;6.38;;;;;;;;;;6272855;28;20021;-77
2022/06/01 02:45:53;;;;;;;10.75;5.93;;;;;;;;;;6269964;28;20439;-77
2022/06/01 02:48:55;;;;;;;12.15;5.85;;;;;;;;;;6269706;28;20025;-76
2022/06/01 02:51:55;;;;;;;9.95;4.78;;;;;;;;;;6268334;28;20017;-77
2022/06/01 02:54:56;;;;;;;10.13;5.13;;;;;;;;;;6266456;28;20079;-77
2022/06/01 02:57:56;;;;;;;9.60;4.43;;;;;;;;;;6272550;28;20044;-76
2022/06/01 03:00:59;;;;;;;8.40;4.05;;;;;;;;;;6267861;28;20751;-76
2022/06/01 03:03:59;;;;;;;5.03;3.00;;;;;;;;;;6272585;28;20029;-77
2022/06/01 03:07:00;;;;;;;5.07;2.80;;;;;;;;;;6269198;28;20048;-76
2022/06/01 03:10:00;;;;;;;10.13;3.63;;;;;;;;;;6271852;28;20658;-77
2022/06/01 03:13:01;;;;;;;5.93;3.20;;;;;;;;;;6266836;28;20276;-76
2022/06/01 03:16:01;;;;;;;5.75;3.35;;;;;;;;;;6263507;28;20815;-76
2022/06/01 03:19:01;;;;;;;7.32;3.42;;;;;;;;;;6273149;28;20045;-77
2022/06/01 03:22:02;;;;;;;6.43;3.20;;;;;;;;;;6268832;28;20028;-77
2022/06/01 03:25:03;;;;;;;3.97;2.95;;;;;;;;;;6269689;28;20268;-77
2022/06/01 03:28:05;;;;;;;6.15;3.40;;;;;;;;;;6273919;28;20068;-77
2022/06/01 03:31:06;;;;;;;;;;;;;;;;;;6274063;28;20025;-77
2022/06/01 03:34:06;;;;;;;8.40;3.10;;;;;;;;;;6272485;28;20421;-77
2022/06/01 03:37:06;;;;;;;8.53;3.87;;;;;;;;;;6266632;28;20021;-77
2022/06/01 03:40:06;;;;;;;6.33;3.53;;;;;;;;;;6272898;28;20021;-77
2022/06/01 03:43:07;;;;;;;7.32;4.50;;;;;;;;;;6271396;28;20805;-77
2022/06/01 03:46:07;;;;;;;6.50;3.80;;;;;;;;;;6271741;28;20029;-77
2022/06/01 03:49:08;;;;;;;9.73;4.97;;;;;;;;;;6271080;28;20052;-76
2022/06/01 03:52:08;;;;;;;8.60;5.00;;;;;;;;;;6268797;28;20275;-76
2022/06/01 03:55:08;;;;;;;13.05;5.05;;;;;;;;;;6266363;28;20021;-76
2022/06/01 03:58:13;;;;;;;7.37;3.63;;;;;;;;;;6267993;28;20031;-76
2022/06/01 04:01:13;;;;;;;5.25;4.10;;;;;;;;;;6268005;28;20624;-76
2022/06/01 04:04:13;;;;;;;13.75;4.72;;;;;;;;;;6268848;28;20017;-77
2022/06/01 04:07:13;;;;;;;7.50;2.72;;;;;;;;;;6261239;28;20024;-77
2022/06/01 04:10:14;;;;;;;4.88;2.67;;;;;;;;;;6269161;28;20353;-77
2022/06/01 04:13:14;;;;;;;5.22;2.95;;;;;;;;;;6265815;28;20396;-76
2022/06/01 04:16:18;;;;;;;3.72;1.75;;;;;;;;;;6265955;28;20013;-77
2022/06/01 04:19:19;;;;;;;3.03;1.95;;;;;;;;;;6262995;28;20072;-77
2022/06/01 04:22:20;;;;;;;3.90;2.30;;;;;;;;;;6265804;28;20548;-77
2022/06/01 04:25:21;;;;;;;4.57;1.95;;;;;;;;;;6259881;28;20477;-78
2022/06/01 04:28:21;;;;;;;2.80;1.70;;;;;;;;;;6266662;28;20048;-78
2022/06/01 04:31:21;;;;;;;3.22;1.83;;;;;;;;;;6271757;28;20033;-76
2022/06/01 04:34:21;;;;;;;3.38;2.17;;;;;;;;;;6254736;28;20017;-78
2022/06/01 04:37:22;;;;;;;5.40;2.03;;;;;;;;;;6264845;28;20025;-77
2022/06/01 04:40:22;;;;;;;3.10;2.13;;;;;;;;;;6272126;28;20294;-77
2022/06/01 04:43:22;;;;;;;7.25;3.38;;;;;;;;;;6269156;28;20021;-77
2022/06/01 04:46:22;;;;;;;8.23;3.17;;;;;;;;;;6265051;28;20144;-77
2022/06/01 04:49:23;;;;;;;7.50;3.00;;;;;;;;;;6266480;28;20628;-81
2022/06/01 04:52:23;;;;;;;7.75;2.95;;;;;;;;;;6270037;28;20021;-77
2022/06/01 04:55:23;;;;;;;5.35;2.67;;;;;;;;;;6268532;28;20061;-76
2022/06/01 04:58:23;;;;;;;4.28;2.30;;;;;;;;;;6270052;28;20029;-76
2022/06/01 05:01:24;;;;;;;5.30;3.30;;;;;;;;;;6270775;28;20465;-76
2022/06/01 05:04:25;;;;;;;8.13;3.87;;;;;;;;;;6259302;28;20104;-76
2022/06/01 05:07:25;;;;;;;10.38;3.72;;;;;;;;;;6263181;28;20259;-76
2022/06/01 05:10:27;;;;;;;6.30;3.72;;;;;;;;;;6267676;28;20056;-76
2022/06/01 05:13:28;;;;;;;9.52;3.70;;;;;;;;;;6267751;28;20029;-76
2022/06/01 05:16:28;;;;;;;7.38;4.10;;;;;;;;;;6265899;28;20017;-76
2022/06/01 05:19:28;;;;;;;7.07;4.27;;;;;;;;;;6263616;28;20041;-76
2022/06/01 05:22:28;;;;;;;12.37;4.17;;;;;;;;;;6255542;28;20051;-76
2022/06/01 05:25:29;;;;;;;10.83;4.83;;;;;;;;;;6268508;28;20275;-75
2022/06/01 05:28:30;;;;;;;9.07;4.13;;;;;;;;;;6273605;28;20033;-74
2022/06/01 05:31:30;;;;;;;9.70;3.27;;;;;;;;;;6268659;28;20029;-75
2022/06/01 05:34:30;;;;;;;5.03;4.40;;;;;;;;;;6267261;28;20259;-74
2022/06/01 05:37:30;;;;;;;3.75;2.97;;;;;;;;;;6269281;28;20703;-74
2022/06/01 05:40:31;;;;;;;4.00;2.63;;;;;;;;;;6269887;28;20021;-76
2022/06/01 05:43:31;;;;;;;5.15;2.60;;;;;;;;;;6259472;28;20021;-75
2022/06/01 05:46:35;;;;;;;6.90;2.65;;;;;;;;;;6261468;28;20032;-75
2022/06/01 05:49:35;;;;;;;2.83;2.45;;;;;;;;;;6260689;28;20151;-75
2022/06/01 05:52:38;;;;;;;7.43;4.93;;;;;;;;;;6283915;28;20907;-75
2022/06/01 05:55:39;;;;;;;9.50;5.95;;;;;;;;;;6258651;28;20351;-75
2022/06/01 05:58:39;;;;;;;6.72;3.30;;;;;;;;;;6261014;28;20020;-75
2022/06/01 06:01:39;;;;;;;4.47;2.90;;;;;;;;;;6265828;28;20081;-75
2022/06/01 06:04:39;;;;;;;7.32;3.78;;;;;;;;;;6252861;28;20101;-75
2022/06/01 06:07:39;;;;;;;6.65;3.70;;;;;;;;;;6258937;28;20033;-74
2022/06/01 06:10:40;;;;;;;4.22;2.90;;;;;;;;;;6266327;28;20029;-74
2022/06/01 06:13:40;;;;;;;12.98;6.90;;;;;;;;;;6266004;28;20032;-74
2022/06/01 06:16:43;;;;;;;37.05;25.40;;;;;;;;;;6266245;28;20057;-74
2022/06/01 06:19:43;;;;;;;33.75;23.02;;;;;;;;;;6268406;28;20045;-74
2022/06/01 06:22:43;;;;;;;26.52;19.00;;;;;;;;;;6265708;28;20048;-74
2022/06/01 06:25:43;;;;;;;29.37;20.23;;;;;;;;;;6269388;28;20041;-74
2022/06/01 06:28:44;;;;;;;30.60;18.45;;;;;;;;;;6258232;28;20256;-74
2022/06/01 06:31:44;;;;;;;26.08;17.40;;;;;;;;;;6250067;28;20099;-74
2022/06/01 06:34:45;;;;;;;24.67;17.50;;;;;;;;;;6254692;28;20038;-74
2022/06/01 06:37:45;;;;;;;24.58;16.50;;;;;;;;;;6259592;28;20026;-74
2022/06/01 06:40:45;;;;;;;17.20;13.07;;;;;;;;;;6269617;28;20032;-74
2022/06/01 06:43:45;;;;;;;16.33;12.20;;;;;;;;;;6272904;28;20248;-74
2022/06/01 06:46:45;;;;;;;16.00;11.10;;;;;;;;;;6269561;28;20059;-74
2022/06/01 06:49:46;;;;;;;19.37;11.73;;;;;;;;;;6262177;28;20381;-74
2022/06/01 06:52:46;;;;;;;11.37;8.37;;;;;;;;;;6265085;28;20028;-74
2022/06/01 06:55:46;;;;;;;16.25;9.05;;;;;;;;;;6261853;28;20675;-74
2022/06/01 06:58:46;;;;;;;13.50;8.97;;;;;;;;;;6270929;28;20099;-75
2022/06/01 07:01:47;;;;;;;13.03;8.50;;;;;;;;;;6271838;28;20020;-75
2022/06/01 07:04:47;;;;;;;12.25;9.60;;;;;;;;;;6272782;28;20023;-75
2022/06/01 07:07:47;;;;;;;12.07;8.63;;;;;;;;;;6260290;28;20028;-75
2022/06/01 07:10:47;;;;;;;13.73;6.80;;;;;;;;;;6254337;28;20024;-75
2022/06/01 07:13:48;;;;;;;8.40;5.77;;;;;;;;;;6254242;28;20449;-75
2022/06/01 07:16:48;;;;;;;8.77;5.63;;;;;;;;;;6253105;28;20470;-75
2022/06/01 07:19:52;;;;;;;13.07;6.00;;;;;;;;;;6272030;28;20116;-75
2022/06/01 07:22:54;;;;;;;9.00;5.38;;;;;;;;;;6267668;28;20017;-76
2022/06/01 07:25:54;;;;;;;6.63;5.18;;;;;;;;;;6267554;28;20090;-75
2022/06/01 07:28:55;;;;;;;8.50;4.83;;;;;;;;;;6265632;28;20026;-75
2022/06/01 07:31:55;;;;;;;7.97;4.93;;;;;;;;;;6266905;28;20021;-75
2022/06/01 07:34:55;;;;;;;9.35;4.63;;;;;;;;;;6265786;28;20021;-75
2022/06/01 07:44:38;;;;;;;9.48;4.00;;;;;;;;;;6272370;28;20017;-76
2022/06/01 07:47:38;;;;;;;6.40;3.93;;;;;;;;;;6264952;28;20397;-76
2022/06/01 07:50:38;;;;;;;6.90;3.77;;;;;;;;;;6269985;28;20267;-75
2022/06/01 07:53:38;;;;;;;6.90;3.90;;;;;;;;;;6269779;28;20078;-75
2022/06/01 07:56:38;;;;;;;7.23;3.77;;;;;;;;;;6267808;28;20021;-76
2022/06/01 07:59:39;;;;;;;6.73;4.20;;;;;;;;;;6269303;28;20047;-76
2022/06/01 08:02:39;;;;;;;4.33;3.20;;;;;;;;;;6263489;28;20051;-76
2022/06/01 08:05:40;;;;;;;7.70;4.43;;;;;;;;;;6262806;28;20030;-76
2022/06/01 08:08:40;;;;;;;5.07;3.53;;;;;;;;;;6260499;28;20029;-76
2022/06/01 08:14:59;;;;;;;5.97;2.63;;;;;;;;;;6260338;28;20033;-75
2022/06/01 08:17:59;;;;;;;6.80;2.50;;;;;;;;;;6271408;28;20028;-75
2022/06/01 08:20:59;;;;;;;4.93;1.90;;;;;;;;;;6271224;28;20580;-76
2022/06/01 08:24:00;;;;;;;3.53;1.90;;;;;;;;;;6266232;28;20028;-76
2022/06/01 08:27:00;;;;;;;3.03;2.00;;;;;;;;;;6262221;28;20044;-76
2022/06/01 08:30:00;;;;;;;4.50;1.90;;;;;;;;;;6270418;28;20021;-76
2022/06/01 08:33:01;;;;;;;2.67;1.60;;;;;;;;;;6270558;28;20035;-75
2022/06/01 08:36:01;;;;;;;4.40;2.40;;;;;;;;;;6269040;28;20397;-75
2022/06/01 08:39:02;;;;;;;5.40;1.47;;;;;;;;;;6254149;28;20453;-76
2022/06/01 08:42:03;;;;;;;2.57;1.40;;;;;;;;;;6259582;28;20099;-76
2022/06/01 08:45:06;;;;;;;3.78;1.98;;;;;;;;;;6255022;28;20748;-76
2022/06/01 08:48:08;;;;;;;4.05;1.98;;;;;;;;;;6267765;28;20017;-76
2022/06/01 08:51:09;;;;;;;3.58;1.83;;;;;;;;;;6264930;28;20023;-76
2022/06/01 08:54:09;;;;;;;4.72;2.42;;;;;;;;;;6268756;28;20017;-76
2022/06/01 08:57:13;;;;;;;4.73;2.40;;;;;;;;;;6266016;28;20025;-76
2022/06/01 09:00:16;;;;;;;5.28;2.45;;;;;;;;;;6275773;28;20021;-76
2022/06/01 09:03:36;;;;;;;4.22;1.50;;;;;;;;;;6268942;28;20021;-76
2022/06/01 09:06:38;;;;;;;2.17;1.67;;;;;;;;;;6256729;28;20033;-76
2022/06/01 09:09:57;;;;;;;3.63;1.85;;;;;;;;;;6268915;28;20025;-76
2022/06/01 09:13:02;;;;;;;4.30;1.70;;;;;;;;;;6259685;28;20025;-76
2022/06/01 09:16:04;;;;;;;5.20;1.77;;;;;;;;;;6258530;28;20112;-75
2022/06/01 09:19:07;;;;;;;3.92;1.58;;;;;;;;;;6264914;28;20435;-76
2022/06/01 09:25:35;;;;;;;4.75;2.28;;;;;;;;;;6263806;28;20032;-75
2022/06/01 09:28:41;;;;;;;2.38;1.52;;;;;;;;;;6268421;28;20040;-75
2022/06/01 09:31:42;;;;;;;4.18;1.80;;;;;;;;;;6266223;28;20032;-76
2022/06/01 09:34:47;;;;;;;2.40;1.95;;;;;;;;;;6268840;28;20044;-76
2022/06/01 09:37:48;;;;;;;3.15;1.50;;;;;;;;;;6267738;28;20028;-76
2022/06/01 09:41:02;;;;;;;3.10;1.80;;;;;;;;;;6263586;28;20151;-76
2022/06/01 09:44:04;;;;;;;3.72;2.42;;;;;;;;;;6269452;28;20397;-75
2022/06/01 09:47:05;;;;;;;1.52;1.40;;;;;;;;;;6268025;28;20025;-75
2022/06/01 09:50:07;;;;;;;4.00;1.60;;;;;;;;;;6258577;28;20035;-75
2022/06/01 09:53:11;;;;;;;4.07;1.70;;;;;;;;;;6267046;28;20029;-76
2022/06/01 09:56:15;;;;;;;2.10;1.40;;;;;;;;;;6268853;28;20103;-76
2022/06/01 10:06:16;;;;;;;6.27;2.17;;;;;;;;;;6266572;28;20037;-75
2022/06/01 10:09:25;;;;;;;2.58;1.50;;;;;;;;;;6270849;28;20481;-76
2022/06/01 10:12:32;;;;;;;4.55;1.75;;;;;;;;;;6260288;28;20120;-75
2022/06/01 10:15:32;;;;;;;4.03;1.77;;;;;;;;;;6262075;28;20056;-75
2022/06/01 10:18:33;;;;;;;5.33;2.20;;;;;;;;;;6270098;28;20031;-75
2022/06/01 10:21:42;;;;;;;3.67;1.90;;;;;;;;;;6267660;28;20365;-75
2022/06/01 10:24:52;;;;;;;3.55;1.90;;;;;;;;;;6268249;28;20052;-75
2022/06/01 10:28:06;;;;;;;3.42;2.10;;;;;;;;;;6279959;28;20059;-75
2022/06/01 10:31:22;;;;;;;4.07;1.95;;;;;;;;;;6274429;28;20025;-75
2022/06/01 10:34:37;;;;;;;5.45;2.10;;;;;;;;;;6268641;28;20013;-76
2022/06/01 10:37:42;;;;;;;2.50;1.83;;;;;;;;;;6270156;28;20536;-76
2022/06/01 10:40:53;;;;;;;3.10;1.60;;;;;;;;;;6269976;28;20020;-76
2022/06/01 10:44:00;;;;;;;2.07;1.20;;;;;;;;;;6267060;28;20013;-76
2022/06/01 10:47:06;;;;;;;3.05;1.55;;;;;;;;;;6255342;28;20341;-76
2022/06/01 10:50:15;;;;;;;5.63;1.92;;;;;;;;;;6264198;28;20017;-75
2022/06/01 10:53:33;;;;;;;4.38;2.05;;;;;;;;;;6253526;28;20128;-75
2022/06/01 10:56:33;;;;;;;2.92;1.60;;;;;;;;;;6255018;28;20020;-75
2022/06/01 10:59:33;;;;;;;2.75;1.42;;;;;;;;;;6255505;28;20565;-75
2022/06/01 11:02:36;;;;;;;2.17;1.43;;;;;;;;;;6257640;28;20059;-75
2022/06/01 11:05:37;;;;;;;5.25;1.70;;;;;;;;;;6262277;28;20341;-75
2022/06/01 11:08:57;;;;;;;3.70;1.40;;;;;;;;;;6266750;28;20027;-76
2022/06/01 11:12:16;;;;;;;0.80;0.77;;;;;;;;;;6259716;28;20034;-75
2022/06/01 11:15:23;;;;;;;1.90;1.42;;;;;;;;;;6256677;28;20025;-75
2022/06/01 11:18:23;;;;;;;4.43;1.83;;;;;;;;;;6269773;28;20503;-75
2022/06/01 11:21:42;;;;;;;3.10;1.27;;;;;;;;;;6266241;28;20493;-75
2022/06/01 11:24:53;;;;;;;4.55;1.58;;;;;;;;;;6268327;28;20017;-76
2022/06/01 11:27:56;;;;;;;1.43;1.23;;;;;;;;;;6264376;28;20009;-75
2022/06/01 11:30:56;;;;;;;4.53;1.52;;;;;;;;;;6262878;28;21072;-75
2022/06/01 11:34:02;;;;;;;5.30;2.17;;;;;;;;;;6268002;28;20013;-75
2022/06/01 11:37:07;;;;;;;1.63;1.45;;;;;;;;;;6270014;28;20025;-75
2022/06/01 11:40:17;;;;;;;2.97;1.40;;;;;;;;;;6273084;28;20357;-75
2022/06/01 11:43:36;;;;;;;1.75;1.00;;;;;;;;;;6269308;28;20017;-75
2022/06/01 11:46:49;;;;;;;3.80;2.15;;;;;;;;;;6271666;28;20027;-75
2022/06/01 11:50:11;;;;;;;4.88;3.65;;;;;;;;;;6273779;28;20021;-75
2022/06/01 11:53:13;;;;;;;10.50;2.72;;;;;;;;;;6270979;28;20028;-75
2022/06/01 11:56:16;;;;;;;3.05;1.58;;;;;;;;;;6271746;28;20009;-75
2022/06/01 11:59:22;;;;;;;4.78;1.48;;;;;;;;;;6271644;28;20016;-75
2022/06/01 12:02:40;;;;;;;2.42;1.20;;;;;;;;;;6270512;28;20503;-75
2022/06/01 12:05:56;;;;;;;3.78;1.95;;;;;;;;;;6265757;28;20021;-75
2022/06/01 12:09:00;;;;;;;1.80;0.90;;;;;;;;;;6254829;28;20055;-76
2022/06/01 12:12:01;;;;;;;2.80;1.60;;;;;;;;;;6267423;28;20010;-75
2022/06/01 12:15:12;;;;;;;1.63;0.77;;;;;;;;;;6264507;28;20025;-74
2022/06/01 12:18:12;;;;;;;3.03;1.30;;;;;;;;;;6259490;28;20112;-73
2022/06/01 12:21:18;;;;;;;2.30;1.20;;;;;;;;;;6267919;28;20041;-73
2022/06/01 12:31:26;;;;;;;4.50;1.13;;;;;;;;;;6261005;28;20070;-74
2022/06/01 12:34:32;;;;;;;3.45;1.10;;;;;;;;;;6271230;28;20056;-75
2022/06/01 12:37:35;;;;;;;2.50;1.20;;;;;;;;;;6263324;28;20021;-74
2022/06/01 12:40:36;;;;;;;3.58;2.05;;;;;;;;;;6266673;28;20020;-74
2022/06/01 12:43:37;;;;;;;2.70;1.30;;;;;;;;;;6263601;28;20078;-74
2022/06/01 12:46:39;;;;;;;2.45;1.35;;;;;;;;;;6267661;28;20115;-74
2022/06/01 12:49:42;;;;;;;8.35;2.25;;;;;;;;;;6264235;28;20021;-74
2022/06/01 12:52:42;;;;;;;3.67;1.60;;;;;;;;;;6267609;28;20074;-74
2022/06/01 12:55:43;;;;;;;6.25;1.38;;;;;;;;;;6270085;28;20013;-75
2022/06/01 12:58:45;;;;;;;1.75;1.33;;;;;;;;;;6267674;28;20017;-74
2022/06/01 13:01:49;;;;;;;3.70;1.42;;;;;;;;;;6268727;28;20017;-74
2022/06/01 13:04:50;;;;;;;4.10;1.65;;;;;;;;;;6270749;28;20017;-74
2022/06/01 13:07:54;;;;;;;3.17;1.50;;;;;;;;;;6280550;28;20017;-74
2022/06/01 13:10:55;;;;;;;6.45;1.83;;;;;;;;;;6268935;28;20415;-74
2022/06/01 13:13:59;;;;;;;3.53;1.67;;;;;;;;;;6269470;28;20102;-74
2022/06/01 13:17:01;;;;;;;3.65;1.50;;;;;;;;;;6263771;28;20013;-74
2022/06/01 13:20:04;;;;;;;1.83;1.40;;;;;;;;;;6269806;28;20037;-74
2022/06/01 13:23:26;;;;;;;1.65;1.38;;;;;;;;;;6269546;28;20045;-74
2022/06/01 13:26:28;;;;;;;2.95;1.60;;;;;;;;;;6270048;28;20017;-74
2022/06/01 13:29:32;;;;;;;2.53;1.35;;;;;;;;;;6266870;28;20017;-74
2022/06/01 13:32:45;;;;;;;2.92;1.77;;;;;;;;;;6268899;28;20099;-73
2022/06/01 13:35:53;;;;;;;2.55;1.50;;;;;;;;;;6270539;28;20100;-74
2022/06/01 13:39:00;;;;;;;7.18;1.40;;;;;;;;;;6267918;28;20088;-74
2022/06/01 13:42:01;;;;;;;2.45;1.85;;;;;;;;;;6267698;28;20033;-74
2022/06/01 13:45:01;;;;;;;;;;;;;;;;;;6274072;28;20013;-74
2022/06/01 13:48:04;;;;;;;2.55;1.38;;;;;;;;;;6272955;28;19914;-74
2022/06/01 13:51:23;;;;;;;3.10;1.50;;;;;;;;;;6270825;28;20794;-73
2022/06/01 13:54:29;;;;;;;3.30;1.25;;;;;;;;;;6271990;28;20029;-74
2022/06/01 13:57:30;;;;;;;2.10;1.30;;;;;;;;;;6272793;28;20496;-74
2022/06/01 14:00:30;;;;;;;4.07;1.60;;;;;;;;;;6273782;28;20147;-74
2022/06/01 14:03:40;;;;;;;1.73;1.50;;;;;;;;;;6273280;28;20255;-74
2022/06/01 14:06:42;;;;;;;2.37;1.40;;;;;;;;;;6275928;28;20539;-74
2022/06/01 14:09:49;;;;;;;2.97;1.60;;;;;;;;;;6272017;28;20079;-75
2022/06/01 14:12:50;;;;;;;5.88;1.90;;;;;;;;;;6273872;28;20107;-74
2022/06/01 14:15:50;;;;;;;;;;;;;;;;;;6272981;28;20473;-75
2022/06/01 14:18:50;;;;;;;2.28;1.17;;;;;;;;;;6275024;28;19905;-75
2022/06/01 14:21:51;;;;;;;1.50;1.33;;;;;;;;;;6273192;28;20017;-74
2022/06/01 14:28:28;;;;;;;1.77;1.48;;;;;;;;;;6272399;28;20115;-74
2022/06/01 14:31:30;;;;;;;8.07;1.63;;;;;;;;;;6272170;28;20017;-75
2022/06/01 14:34:31;;;;;;;2.08;1.75;;;;;;;;;;6274050;28;20029;-75
2022/06/01 14:37:31;;;;;;;5.70;2.03;;;;;;;;;;6273233;28;20071;-75
2022/06/01 14:40:31;;;;;;;1.80;1.20;;;;;;;;;;6274925;28;20044;-74
2022/06/01 14:43:32;;;;;;;;;;;;;;;;;;6274826;28;20940;-74
2022/06/01 14:46:33;;;;;;;2.38;1.60;;;;;;;;;;6273811;28;19911;-74
2022/06/01 14:49:33;;;;;;;;;;;;;;;;;;6275615;28;20021;-74
2022/06/01 14:52:33;;;;;;;2.93;1.77;;;;;;;;;;6271036;28;20273;-75
2022/06/01 14:55:34;;;;;;;4.77;1.20;;;;;;;;;;6270829;28;20039;-75
2022/06/01 14:58:34;;;;;;;1.20;1.10;;;;;;;;;;6275481;28;20025;-74
2022/06/01 15:01:38;;;;;;;3.35;1.75;;;;;;;;;;6250716;28;20048;-74
2022/06/01 15:04:39;;;;;;;5.45;1.58;;;;;;;;;;6246211;28;20075;-74
2022/06/01 15:07:39;;;;;;;3.72;1.77;;;;;;;;;;6253098;28;20013;-74
2022/06/01 15:10:41;;;;;;;1.80;1.07;;;;;;;;;;6252795;28;20075;-75
2022/06/01 15:13:41;;;;;;;5.28;1.60;;;;;;;;;;6255975;28;20029;-74
2022/06/01 15:16:43;;;;;;;1.80;1.00;;;;;;;;;;6247402;28;20017;-74
2022/06/01 15:19:43;;;;;;;;;;;;;;;;;;6251041;28;20052;-74
2022/06/01 15:22:43;;;;;;;2.58;1.40;;;;;;;;;;6253632;28;19908;-75
2022/06/01 15:25:44;;;;;;;4.10;1.27;;;;;;;;;;6253186;28;20491;-75
2022/06/01 15:28:44;;;;;;;1.67;1.30;;;;;;;;;;6259780;28;20233;-75
2022/06/01 15:41:42;;;;;;;1.88;1.42;;;;;;;;;;6259544;28;20468;-75
2022/06/01 15:44:42;;;;;;;2.67;1.10;;;;;;;;;;6253687;28;20031;-74
2022/06/01 15:47:44;;;;;;;3.43;1.10;;;;;;;;;;6263579;28;20580;-75
2022/06/01 15:50:46;;;;;;;3.58;1.45;;;;;;;;;;6257466;28;20536;-76
2022/06/01 15:53:46;;;;;;;1.83;1.13;;;;;;;;;;6262902;28;20017;-75
2022/06/01 15:56:46;;;;;;;1.10;1.07;;;;;;;;;;6255526;28;20017;-75
2022/06/01 15:59:46;;;;;;;4.50;1.30;;;;;;;;;;6261432;28;20017;-75
2022/06/01 16:02:47;;;;;;;4.70;1.43;;;;;;;;;;6255632;28;20509;-75
2022/06/01 16:05:47;;;;;;;3.30;1.33;;;;;;;;;;6250577;28;20025;-75
2022/06/01 16:08:47;;;;;;;2.90;1.37;;;;;;;;;;6260048;28;20024;-74
2022/06/01 16:11:47;;;;;;;3.23;1.77;;;;;;;;;;6258679;28;20040;-74
2022/06/01 16:14:48;;;;;;;4.43;1.50;;;;;;;;;;6254908;28;20100;-73
2022/06/01 16:17:50;;;;;;;3.37;2.10;;;;;;;;;;6261841;28;20048;-74
2022/06/01 16:20:51;;;;;;;3.10;2.13;;;;;;;;;;6256400;28;20412;-74
2022/06/01 16:23:51;;;;;;;2.80;1.60;;;;;;;;;;6265149;28;20032;-74
2022/06/01 16:26:51;;;;;;;4.50;2.83;;;;;;;;;;6263939;28;20400;-74
2022/06/01 16:29:51;;;;;;;6.88;1.90;;;;;;;;;;6265989;28;20092;-74
2022/06/01 16:32:53;;;;;;;2.80;1.50;;;;;;;;;;6266167;28;20535;-74
2022/06/01 16:35:53;;;;;;;3.78;1.67;;;;;;;;;;6268912;28;20307;-74
2022/06/01 16:38:53;;;;;;;6.20;1.57;;;;;;;;;;6266876;28;20032;-74
2022/06/01 16:41:54;;;;;;;6.43;1.77;;;;;;;;;;6260654;28;20012;-74
2022/06/01 16:44:54;;;;;;;3.17;1.40;;;;;;;;;;6268234;28;20059;-74
2022/06/01 16:47:54;;;;;;;2.03;1.50;;;;;;;;;;6270315;28;20159;-74
2022/06/01 16:50:55;;;;;;;3.70;1.80;;;;;;;;;;6261228;28;20507;-74
2022/06/01 16:53:55;;;;;;;1.97;1.23;;;;;;;;;;6266722;28;20039;-74
2022/06/01 16:56:55;;;;;;;3.57;1.50;;;;;;;;;;6252480;28;20017;-75
2022/06/01 16:59:56;;;;;;;5.00;1.40;;;;;;;;;;6248505;28;20013;-74
2022/06/01 17:02:56;;;;;;;3.07;2.00;;;;;;;;;;6267626;28;20025;-74
2022/06/01 17:05:57;;;;;;;1.67;1.33;;;;;;;;;;6270557;28;20036;-74
2022/06/01 17:08:58;;;;;;;3.25;2.20;;;;;;;;;;6269583;28;20021;-75
2022/06/01 17:11:58;;;;;;;2.43;1.50;;;;;;;;;;6268769;28;20777;-75
2022/06/01 17:14:58;;;;;;;2.55;1.88;;;;;;;;;;6268509;28;20028;-75
2022/06/01 17:18:02;;;;;;;4.33;2.20;;;;;;;;;;6267656;28;20025;-75
2022/06/01 17:21:02;;;;;;;3.60;1.85;;;;;;;;;;6267681;28;20505;-75
2022/06/01 17:24:03;;;;;;;3.70;1.80;;;;;;;;;;6270544;28;20025;-75
2022/06/01 17:27:03;;;;;;;1.90;1.53;;;;;;;;;;6265998;28;20075;-75
2022/06/01 17:30:05;;;;;;;3.20;1.80;;;;;;;;;;6268831;28;20845;-75
2022/06/01 17:33:19;;;;;;;2.90;1.80;;;;;;;;;;6269945;28;20099;-75
2022/06/01 17:36:19;;;;;;;5.13;2.15;;;;;;;;;;6266211;28;20025;-75
2022/06/01 17:39:20;;;;;;;4.17;1.70;;;;;;;;;;6260575;28;20017;-75
2022/06/01 17:42:20;;;;;;;3.47;1.80;;;;;;;;;;6265878;28;20020;-75
2022/06/01 17:45:22;;;;;;;2.80;1.97;;;;;;;;;;6262159;28;20017;-75
2022/06/01 17:48:27;;;;;;;3.58;1.58;;;;;;;;;;6257446;28;20399;-75
2022/06/01 17:51:27;;;;;;;2.33;1.63;;;;;;;;;;6252479;28;20435;-75
2022/06/01 17:54:27;;;;;;;3.63;1.77;;;;;;;;;;6253688;28;20017;-75
2022/06/01 17:57:29;;;;;;;4.20;1.90;;;;;;;;;;6258964;28;20388;-75
2022/06/01 18:00:29;;;;;;;2.78;1.77;;;;;;;;;;6251500;28;20021;-75
2022/06/01 18:03:29;;;;;;;3.90;1.97;;;;;;;;;;6250774;28;20064;-75
2022/06/01 18:06:31;;;;;;;4.80;1.70;;;;;;;;;;6254531;28;20032;-74
2022/06/01 18:09:31;;;;;;;3.38;2.28;;;;;;;;;;6252082;28;20096;-75
2022/06/01 18:12:31;;;;;;;7.00;2.67;;;;;;;;;;6250014;28;20024;-75
2022/06/01 18:15:33;;;;;;;3.83;1.93;;;;;;;;;;6257275;28;20085;-75
2022/06/01 18:18:34;;;;;;;;;;;;;;;;;;6254464;28;20057;-75
2022/06/01 18:21:34;;;;;;;3.92;2.20;;;;;;;;;;6249597;28;19925;-75
2022/06/01 18:24:34;;;;;;;3.50;2.10;;;;;;;;;;6252361;28;20025;-75
2022/06/01 18:27:35;;;;;;;4.63;2.30;;;;;;;;;;6252208;28;20029;-75
2022/06/01 18:30:37;;;;;;;2.17;1.97;;;;;;;;;;6256455;28;20026;-76
2022/06/01 18:33:38;;;;;;;2.55;1.80;;;;;;;;;;6262590;28;20028;-75
2022/06/01 18:36:38;;;;;;;6.67;2.67;;;;;;;;;;6257513;28;20061;-75
2022/06/01 18:39:39;;;;;;;2.43;1.90;;;;;;;;;;6264891;28;20420;-74
2022/06/01 18:42:41;;;;;;;2.53;1.57;;;;;;;;;;6256879;28;20089;-75
2022/06/01 18:45:43;;;;;;;3.63;1.88;;;;;;;;;;6256195;28;20396;-75
2022/06/01 18:48:48;;;;;;;5.95;1.90;;;;;;;;;;6259446;28;20033;-74
2022/06/01 18:51:49;;;;;;;5.28;2.30;;;;;;;;;;6266735;28;20021;-75
2022/06/01 18:54:50;;;;;;;3.28;2.40;;;;;;;;;;6265945;28;20029;-75
2022/06/01 18:57:50;;;;;;;3.13;2.17;;;;;;;;;;6256383;28;20048;-75
2022/06/01 19:04:10;;;;;;;3.80;2.60;;;;;;;;;;6255700;28;20017;-74